sensor_id;sensor_type;location;lat;lon;timestamp;pressure;altitude;pressure_sealevel;temperature
49154;BMP280;49455;52.252;9.124;2023-04-03T00:04:47;101055.09;;;1.70
49154;BMP280;49455;52.252;9.124;2023-04-03T00:09:48;101057.91;;;1.63
49154;BMP280;49455;52.252;9.124;2023-04-03T00:14:48;101069.25;;;1.57
49154;BMP280;49455;52.252;9.124;2023-04-03T00:19:49;101062.75;;;1.50
49154;BMP280;49455;52.252;9.124;2023-04-03T00:24:49;101063.66;;;1.41
49154;BMP280;49455;52.252;9.124;2023-04-03T00:29:50;101061.88;;;1.30
49154;BMP280;49455;52.252;9.124;2023-04-03T00:34:50;101062.75;;;1.31
49154;BMP280;49455;52.252;9.124;2023-04-03T00:39:53;101069.28;;;1.27
49154;BMP280;49455;52.252;9.124;2023-04-03T00:49:58;101065.19;;;1.20
49154;BMP280;49455;52.252;9.124;2023-04-03T00:55:02;101074.97;;;1.15
49154;BMP280;49455;52.252;9.124;2023-04-03T01:00:15;101070.75;;;1.16
49154;BMP280;49455;52.252;9.124;2023-04-03T01:05:18;101070.41;;;1.11
49154;BMP280;49455;52.252;9.124;2023-04-03T01:10:19;101074.72;;;1.12
49154;BMP280;49455;52.252;9.124;2023-04-03T01:15:23;101074.31;;;1.08
49154;BMP280;49455;52.252;9.124;2023-04-03T01:25:28;101084.34;;;0.96
49154;BMP280;49455;52.252;9.124;2023-04-03T01:30:32;101076.97;;;0.90
49154;BMP280;49455;52.252;9.124;2023-04-03T01:35:34;101073.50;;;0.89
49154;BMP280;49455;52.252;9.124;2023-04-03T01:40:34;101072.25;;;0.84
49154;BMP280;49455;52.252;9.124;2023-04-03T01:45:35;101086.34;;;0.81
49154;BMP280;49455;52.252;9.124;2023-04-03T01:50:35;101092.69;;;0.76
49154;BMP280;49455;52.252;9.124;2023-04-03T01:55:36;101092.69;;;0.76
49154;BMP280;49455;52.252;9.124;2023-04-03T02:00:36;101099.03;;;0.71
49154;BMP280;49455;52.252;9.124;2023-04-03T02:05:40;101094.69;;;0.70
49154;BMP280;49455;52.252;9.124;2023-04-03T02:10:40;101093.91;;;0.61
49154;BMP280;49455;52.252;9.124;2023-04-03T02:15:41;101101.81;;;0.64
49154;BMP280;49455;52.252;9.124;2023-04-03T02:20:41;101103.94;;;0.59
49154;BMP280;49455;52.252;9.124;2023-04-03T02:25:44;101103.41;;;0.54
49154;BMP280;49455;52.252;9.124;2023-04-03T02:30:46;101100.50;;;0.49
49154;BMP280;49455;52.252;9.124;2023-04-03T02:35:46;101117.25;;;0.47
49154;BMP280;49455;52.252;9.124;2023-04-03T02:40:48;101110.09;;;0.43
49154;BMP280;49455;52.252;9.124;2023-04-03T02:45:49;101111.13;;;0.45
49154;BMP280;49455;52.252;9.124;2023-04-03T02:50:52;101127.50;;;0.39
49154;BMP280;49455;52.252;9.124;2023-04-03T02:55:54;101125.72;;;0.38
49154;BMP280;49455;52.252;9.124;2023-04-03T03:00:55;101125.59;;;0.36
49154;BMP280;49455;52.252;9.124;2023-04-03T03:06:07;101131.13;;;0.32
49154;BMP280;49455;52.252;9.124;2023-04-03T03:11:08;101134.09;;;0.37
49154;BMP280;49455;52.252;9.124;2023-04-03T03:16:09;101134.47;;;0.31
49154;BMP280;49455;52.252;9.124;2023-04-03T03:21:10;101134.03;;;0.27
49154;BMP280;49455;52.252;9.124;2023-04-03T03:26:10;101142.66;;;0.19
49154;BMP280;49455;52.252;9.124;2023-04-03T03:31:11;101143.28;;;0.17
49154;BMP280;49455;52.252;9.124;2023-04-03T03:36:13;101143.00;;;0.14
49154;BMP280;49455;52.252;9.124;2023-04-03T03:41:13;101140.47;;;0.14
49154;BMP280;49455;52.252;9.124;2023-04-03T03:46:16;101130.16;;;0.12
49154;BMP280;49455;52.252;9.124;2023-04-03T03:51:17;101126.91;;;0.05
49154;BMP280;49455;52.252;9.124;2023-04-03T03:56:18;101125.16;;;0.04
49154;BMP280;49455;52.252;9.124;2023-04-03T04:01:20;101135.66;;;-0.01
49154;BMP280;49455;52.252;9.124;2023-04-03T04:06:22;101137.75;;;-0.06
49154;BMP280;49455;52.252;9.124;2023-04-03T04:11:24;101149.19;;;-0.11
49154;BMP280;49455;52.252;9.124;2023-04-03T04:16:26;101138.00;;;-0.13
49154;BMP280;49455;52.252;9.124;2023-04-03T04:21:37;101143.97;;;-0.12
49154;BMP280;49455;52.252;9.124;2023-04-03T04:26:38;101154.72;;;-0.15
49154;BMP280;49455;52.252;9.124;2023-04-03T04:31:44;101164.47;;;-0.19
49154;BMP280;49455;52.252;9.124;2023-04-03T04:36:45;101171.63;;;-0.15
49154;BMP280;49455;52.252;9.124;2023-04-03T04:41:46;101167.91;;;-0.19
49154;BMP280;49455;52.252;9.124;2023-04-03T04:46:50;101178.09;;;-0.19
49154;BMP280;49455;52.252;9.124;2023-04-03T04:51:50;101172.41;;;-0.25
49154;BMP280;49455;52.252;9.124;2023-04-03T04:56:53;101182.88;;;-0.22
49154;BMP280;49455;52.252;9.124;2023-04-03T05:01:53;101180.69;;;-0.27
49154;BMP280;49455;52.252;9.124;2023-04-03T05:06:54;101178.41;;;-0.24
49154;BMP280;49455;52.252;9.124;2023-04-03T05:12:01;101180.53;;;-0.29
49154;BMP280;49455;52.252;9.124;2023-04-03T05:17:06;101180.03;;;-0.25
49154;BMP280;49455;52.252;9.124;2023-04-03T05:22:10;101197.09;;;-0.24
49154;BMP280;49455;52.252;9.124;2023-04-03T05:27:11;101188.97;;;-0.20
49154;BMP280;49455;52.252;9.124;2023-04-03T05:32:14;101189.75;;;-0.21
49154;BMP280;49455;52.252;9.124;2023-04-03T05:37:15;101197.63;;;-0.18
49154;BMP280;49455;52.252;9.124;2023-04-03T05:42:16;101197.91;;;-0.15
49154;BMP280;49455;52.252;9.124;2023-04-03T05:47:18;101211.03;;;-0.10
49154;BMP280;49455;52.252;9.124;2023-04-03T05:57:21;101232.13;;;0.07
49154;BMP280;49455;52.252;9.124;2023-04-03T06:02:40;101236.00;;;0.12
49154;BMP280;49455;52.252;9.124;2023-04-03T06:07:50;101231.47;;;0.18
49154;BMP280;49455;52.252;9.124;2023-04-03T06:12:50;101242.72;;;0.29
49154;BMP280;49455;52.252;9.124;2023-04-03T06:17:51;101247.19;;;0.32
49154;BMP280;49455;52.252;9.124;2023-04-03T06:22:52;101248.16;;;0.42
49154;BMP280;49455;52.252;9.124;2023-04-03T06:27:52;101246.44;;;0.51
49154;BMP280;49455;52.252;9.124;2023-04-03T06:32:52;101253.25;;;0.60
49154;BMP280;49455;52.252;9.124;2023-04-03T06:37:53;101253.19;;;0.69
49154;BMP280;49455;52.252;9.124;2023-04-03T06:42:53;101256.59;;;0.88
49154;BMP280;49455;52.252;9.124;2023-04-03T06:47:54;101269.59;;;0.90
49154;BMP280;49455;52.252;9.124;2023-04-03T06:52:55;101274.75;;;1.00
49154;BMP280;49455;52.252;9.124;2023-04-03T06:57:55;101275.66;;;1.11
49154;BMP280;49455;52.252;9.124;2023-04-03T07:02:56;101283.75;;;1.25
49154;BMP280;49455;52.252;9.124;2023-04-03T07:07:56;101290.00;;;1.28
49154;BMP280;49455;52.252;9.124;2023-04-03T07:13:00;101308.25;;;1.33
49154;BMP280;49455;52.252;9.124;2023-04-03T07:18:00;101302.44;;;1.44
49154;BMP280;49455;52.252;9.124;2023-04-03T07:23:01;101303.47;;;1.55
49154;BMP280;49455;52.252;9.124;2023-04-03T07:28:01;101308.97;;;1.60
49154;BMP280;49455;52.252;9.124;2023-04-03T07:33:03;101304.03;;;1.81
49154;BMP280;49455;52.252;9.124;2023-04-03T07:38:03;101306.00;;;1.93
49154;BMP280;49455;52.252;9.124;2023-04-03T07:43:05;101306.16;;;2.05
49154;BMP280;49455;52.252;9.124;2023-04-03T07:48:05;101309.34;;;2.32
49154;BMP280;49455;52.252;9.124;2023-04-03T07:53:06;101312.03;;;2.53
49154;BMP280;49455;52.252;9.124;2023-04-03T07:58:06;101310.88;;;2.69
49154;BMP280;49455;52.252;9.124;2023-04-03T08:03:09;101319.41;;;2.70
49154;BMP280;49455;52.252;9.124;2023-04-03T08:08:11;101315.94;;;2.89
49154;BMP280;49455;52.252;9.124;2023-04-03T08:13:12;101320.91;;;3.07
49154;BMP280;49455;52.252;9.124;2023-04-03T08:18:14;101329.03;;;3.13
49154;BMP280;49455;52.252;9.124;2023-04-03T08:23:14;101333.13;;;3.21
49154;BMP280;49455;52.252;9.124;2023-04-03T08:28:15;101323.84;;;3.42
49154;BMP280;49455;52.252;9.124;2023-04-03T08:33:15;101320.94;;;3.59
49154;BMP280;49455;52.252;9.124;2023-04-03T08:38:16;101321.34;;;3.85
49154;BMP280;49455;52.252;9.124;2023-04-03T08:43:31;101319.78;;;3.87
49154;BMP280;49455;52.252;9.124;2023-04-03T08:48:41;101308.44;;;4.25
49154;BMP280;49455;52.252;9.124;2023-04-03T08:54:25;101307.44;;;4.35
49154;BMP280;49455;52.252;9.124;2023-04-03T08:59:30;101298.59;;;4.52
49154;BMP280;49455;52.252;9.124;2023-04-03T09:04:31;101303.75;;;4.64
49154;BMP280;49455;52.252;9.124;2023-04-03T09:09:36;101314.00;;;4.86
49154;BMP280;49455;52.252;9.124;2023-04-03T09:20:10;101296.88;;;5.19
49154;BMP280;49455;52.252;9.124;2023-04-03T09:25:17;101281.31;;;5.63
49154;BMP280;49455;52.252;9.124;2023-04-03T09:30:24;101289.16;;;5.53
49154;BMP280;49455;52.252;9.124;2023-04-03T09:35:29;101289.31;;;5.32
49154;BMP280;49455;52.252;9.124;2023-04-03T09:40:44;101296.88;;;5.19
49154;BMP280;49455;52.252;9.124;2023-04-03T09:45:49;101295.22;;;5.09
49154;BMP280;49455;52.252;9.124;2023-04-03T09:55:50;101283.28;;;5.09
49154;BMP280;49455;52.252;9.124;2023-04-03T10:00:59;101271.00;;;5.97
49154;BMP280;49455;52.252;9.124;2023-04-03T10:06:04;101266.06;;;6.48
49154;BMP280;49455;52.252;9.124;2023-04-03T10:11:18;101258.94;;;5.49
49154;BMP280;49455;52.252;9.124;2023-04-03T10:16:24;101252.16;;;5.39
49154;BMP280;49455;52.252;9.124;2023-04-03T10:32:30;101244.19;;;6.79
49154;BMP280;49455;52.252;9.124;2023-04-03T10:48:42;101240.78;;;6.17
49154;BMP280;49455;52.252;9.124;2023-04-03T10:59:15;101233.47;;;5.86
49154;BMP280;49455;52.252;9.124;2023-04-03T11:04:19;101229.16;;;5.98
49154;BMP280;49455;52.252;9.124;2023-04-03T11:09:23;101231.78;;;6.35
49154;BMP280;49455;52.252;9.124;2023-04-03T11:14:28;101209.94;;;7.56
49154;BMP280;49455;52.252;9.124;2023-04-03T11:19:47;101217.13;;;6.71
49154;BMP280;49455;52.252;9.124;2023-04-03T11:24:56;101215.16;;;6.67
49154;BMP280;49455;52.252;9.124;2023-04-03T11:29:58;101207.06;;;7.12
49154;BMP280;49455;52.252;9.124;2023-04-03T11:35:01;101199.59;;;7.42
49154;BMP280;49455;52.252;9.124;2023-04-03T11:40:18;101194.34;;;8.22
49154;BMP280;49455;52.252;9.124;2023-04-03T11:50:39;101179.38;;;9.16
49154;BMP280;49455;52.252;9.124;2023-04-03T12:00:53;101173.16;;;8.83
49154;BMP280;49455;52.252;9.124;2023-04-03T12:32:17;101145.09;;;7.35
49154;BMP280;49455;52.252;9.124;2023-04-03T12:38:33;101152.06;;;7.23
49154;BMP280;49455;52.252;9.124;2023-04-03T12:48:14;101129.09;;;8.94
49154;BMP280;49455;52.252;9.124;2023-04-03T12:53:18;101124.13;;;8.24
49154;BMP280;49455;52.252;9.124;2023-04-03T12:58:25;101125.38;;;7.75
49154;BMP280;49455;52.252;9.124;2023-04-03T13:03:26;101114.31;;;7.63
49154;BMP280;49455;52.252;9.124;2023-04-03T13:08:27;101112.34;;;8.01
49154;BMP280;49455;52.252;9.124;2023-04-03T13:13:28;101113.84;;;7.83
49154;BMP280;49455;52.252;9.124;2023-04-03T13:18:34;101104.09;;;7.78
49154;BMP280;49455;52.252;9.124;2023-04-03T13:23:38;101087.72;;;9.23
49154;BMP280;49455;52.252;9.124;2023-04-03T13:28:40;101091.31;;;8.65
49154;BMP280;49455;52.252;9.124;2023-04-03T13:34:15;101077.31;;;8.17
49154;BMP280;49455;52.252;9.124;2023-04-03T13:39:20;101080.13;;;7.79
49154;BMP280;49455;52.252;9.124;2023-04-03T13:54:36;101064.69;;;9.10
49154;BMP280;49455;52.252;9.124;2023-04-03T13:59:37;101071.97;;;8.28
49154;BMP280;49455;52.252;9.124;2023-04-03T14:04:49;101061.53;;;8.70
49154;BMP280;49455;52.252;9.124;2023-04-03T14:09:50;101047.78;;;8.11
49154;BMP280;49455;52.252;9.124;2023-04-03T14:14:51;101049.53;;;8.40
49154;BMP280;49455;52.252;9.124;2023-04-03T14:19:53;101048.72;;;7.70
49154;BMP280;49455;52.252;9.124;2023-04-03T14:24:54;101041.38;;;8.63
49154;BMP280;49455;52.252;9.124;2023-04-03T14:29:58;101041.47;;;9.26
49154;BMP280;49455;52.252;9.124;2023-04-03T14:34:58;101023.94;;;10.33
49154;BMP280;49455;52.252;9.124;2023-04-03T14:40:01;101033.50;;;10.01
49154;BMP280;49455;52.252;9.124;2023-04-03T14:45:04;101033.47;;;8.15
49154;BMP280;49455;52.252;9.124;2023-04-03T14:50:07;101019.41;;;7.82
49154;BMP280;49455;52.252;9.124;2023-04-03T14:55:08;101024.91;;;8.45
49154;BMP280;49455;52.252;9.124;2023-04-03T15:00:15;101010.88;;;9.32
49154;BMP280;49455;52.252;9.124;2023-04-03T15:05:16;101006.31;;;9.43
49154;BMP280;49455;52.252;9.124;2023-04-03T15:10:30;101008.72;;;8.93
49154;BMP280;49455;52.252;9.124;2023-04-03T15:15:32;101012.13;;;8.32
49154;BMP280;49455;52.252;9.124;2023-04-03T15:20:34;101015.50;;;8.45
49154;BMP280;49455;52.252;9.124;2023-04-03T15:25:34;101003.34;;;9.36
49154;BMP280;49455;52.252;9.124;2023-04-03T15:30:37;101008.81;;;9.58
49154;BMP280;49455;52.252;9.124;2023-04-03T15:35:39;101001.00;;;9.56
49154;BMP280;49455;52.252;9.124;2023-04-03T15:40:40;101000.19;;;9.26
49154;BMP280;49455;52.252;9.124;2023-04-03T15:45:41;101004.25;;;9.21
49154;BMP280;49455;52.252;9.124;2023-04-03T15:50:43;100991.38;;;9.69
49154;BMP280;49455;52.252;9.124;2023-04-03T15:55:43;100995.53;;;9.35
49154;BMP280;49455;52.252;9.124;2023-04-03T16:00:44;100995.78;;;9.72
49154;BMP280;49455;52.252;9.124;2023-04-03T16:05:44;100993.06;;;9.69
49154;BMP280;49455;52.252;9.124;2023-04-03T16:10:45;100998.13;;;9.19
49154;BMP280;49455;52.252;9.124;2023-04-03T16:15:45;100993.25;;;8.93
49154;BMP280;49455;52.252;9.124;2023-04-03T16:20:46;100988.44;;;8.83
49154;BMP280;49455;52.252;9.124;2023-04-03T16:25:48;100977.06;;;9.76
49154;BMP280;49455;52.252;9.124;2023-04-03T16:30:48;100975.84;;;9.36
49154;BMP280;49455;52.252;9.124;2023-04-03T16:35:50;100983.03;;;8.95
49154;BMP280;49455;52.252;9.124;2023-04-03T16:40:51;100989.72;;;8.75
49154;BMP280;49455;52.252;9.124;2023-04-03T16:45:51;100983.81;;;8.32
49154;BMP280;49455;52.252;9.124;2023-04-03T16:50:52;100983.31;;;8.23
49154;BMP280;49455;52.252;9.124;2023-04-03T16:55:52;100983.72;;;8.31
49154;BMP280;49455;52.252;9.124;2023-04-03T17:00:53;100982.44;;;7.80
49154;BMP280;49455;52.252;9.124;2023-04-03T17:05:53;100976.63;;;7.27
49154;BMP280;49455;52.252;9.124;2023-04-03T17:10:54;100978.97;;;7.51
49154;BMP280;49455;52.252;9.124;2023-04-03T17:15:54;100970.31;;;7.36
49154;BMP280;49455;52.252;9.124;2023-04-03T17:20:55;100987.91;;;7.02
49154;BMP280;49455;52.252;9.124;2023-04-03T17:25:56;100982.13;;;6.52
49154;BMP280;49455;52.252;9.124;2023-04-03T17:30:58;100985.50;;;6.38
49154;BMP280;49455;52.252;9.124;2023-04-03T17:36:01;100986.56;;;6.41
49154;BMP280;49455;52.252;9.124;2023-04-03T17:41:07;100985.44;;;6.24
49154;BMP280;49455;52.252;9.124;2023-04-03T17:46:09;100995.28;;;5.92
49154;BMP280;49455;52.252;9.124;2023-04-03T17:51:14;101001.13;;;5.77
49154;BMP280;49455;52.252;9.124;2023-04-03T17:56:18;100995.06;;;5.64
49154;BMP280;49455;52.252;9.124;2023-04-03T18:01:24;100992.44;;;5.51
49154;BMP280;49455;52.252;9.124;2023-04-03T18:06:27;101004.53;;;5.41
49154;BMP280;49455;52.252;9.124;2023-04-03T18:11:30;100996.31;;;5.33
49154;BMP280;49455;52.252;9.124;2023-04-03T18:16:30;101008.47;;;5.11
49154;BMP280;49455;52.252;9.124;2023-04-03T18:21:31;101014.13;;;4.95
49154;BMP280;49455;52.252;9.124;2023-04-03T18:26:31;101011.38;;;4.81
49154;BMP280;49455;52.252;9.124;2023-04-03T18:32:00;101014.28;;;4.74
49154;BMP280;49455;52.252;9.124;2023-04-03T18:37:01;101015.00;;;4.60
49154;BMP280;49455;52.252;9.124;2023-04-03T18:42:14;101015.03;;;4.49
49154;BMP280;49455;52.252;9.124;2023-04-03T18:47:15;101018.50;;;4.38
49154;BMP280;49455;52.252;9.124;2023-04-03T18:52:15;101018.66;;;4.28
49154;BMP280;49455;52.252;9.124;2023-04-03T18:57:16;101019.84;;;4.21
49154;BMP280;49455;52.252;9.124;2023-04-03T19:02:17;101019.75;;;4.20
49154;BMP280;49455;52.252;9.124;2023-04-03T19:07:19;101016.84;;;4.16
49154;BMP280;49455;52.252;9.124;2023-04-03T19:12:19;101023.97;;;4.08
49154;BMP280;49455;52.252;9.124;2023-04-03T19:17:20;101026.75;;;4.00
49154;BMP280;49455;52.252;9.124;2023-04-03T19:22:20;101021.63;;;4.00
49154;BMP280;49455;52.252;9.124;2023-04-03T19:27:20;101021.88;;;3.91
49154;BMP280;49455;52.252;9.124;2023-04-03T19:32:21;101025.44;;;3.82
49154;BMP280;49455;52.252;9.124;2023-04-03T19:37:21;101023.53;;;3.80
49154;BMP280;49455;52.252;9.124;2023-04-03T19:42:22;101024.63;;;3.72
49154;BMP280;49455;52.252;9.124;2023-04-03T19:47:22;101019.59;;;3.62
49154;BMP280;49455;52.252;9.124;2023-04-03T19:52:23;101022.50;;;3.55
49154;BMP280;49455;52.252;9.124;2023-04-03T19:57:23;101024.47;;;3.48
49154;BMP280;49455;52.252;9.124;2023-04-03T20:02:24;101020.91;;;3.46
49154;BMP280;49455;52.252;9.124;2023-04-03T20:07:24;101028.13;;;3.40
49154;BMP280;49455;52.252;9.124;2023-04-03T20:12:25;101024.53;;;3.38
49154;BMP280;49455;52.252;9.124;2023-04-03T20:17:25;101013.78;;;3.31
49154;BMP280;49455;52.252;9.124;2023-04-03T20:22:26;101028.63;;;3.25
49154;BMP280;49455;52.252;9.124;2023-04-03T20:27:27;101023.03;;;3.19
49154;BMP280;49455;52.252;9.124;2023-04-03T20:32:27;101025.28;;;3.14
49154;BMP280;49455;52.252;9.124;2023-04-03T20:37:28;101022.34;;;3.10
49154;BMP280;49455;52.252;9.124;2023-04-03T20:42:28;101026.13;;;3.03
49154;BMP280;49455;52.252;9.124;2023-04-03T20:47:29;101025.19;;;3.03
49154;BMP280;49455;52.252;9.124;2023-04-03T20:52:29;101030.16;;;2.90
49154;BMP280;49455;52.252;9.124;2023-04-03T20:57:29;101030.22;;;2.80
49154;BMP280;49455;52.252;9.124;2023-04-03T21:02:31;101018.25;;;2.79
49154;BMP280;49455;52.252;9.124;2023-04-03T21:19:12;101007.31;;;2.49
49154;BMP280;49455;52.252;9.124;2023-04-03T21:24:15;101002.50;;;2.42
49154;BMP280;49455;52.252;9.124;2023-04-03T21:29:16;100995.38;;;2.39
49154;BMP280;49455;52.252;9.124;2023-04-03T21:34:17;100987.34;;;2.34
49154;BMP280;49455;52.252;9.124;2023-04-03T21:39:18;100995.78;;;2.33
49154;BMP280;49455;52.252;9.124;2023-04-03T21:44:19;100995.56;;;2.30
49154;BMP280;49455;52.252;9.124;2023-04-03T21:49:20;101000.38;;;2.27
49154;BMP280;49455;52.252;9.124;2023-04-03T21:54:21;100991.50;;;2.22
49154;BMP280;49455;52.252;9.124;2023-04-03T21:59:21;100992.00;;;2.18
49154;BMP280;49455;52.252;9.124;2023-04-03T22:04:22;100981.88;;;2.09
49154;BMP280;49455;52.252;9.124;2023-04-03T22:09:22;100984.94;;;2.05
49154;BMP280;49455;52.252;9.124;2023-04-03T22:14:23;100992.34;;;2.02
49154;BMP280;49455;52.252;9.124;2023-04-03T22:19:23;100984.56;;;2.00
49154;BMP280;49455;52.252;9.124;2023-04-03T22:24:24;100982.41;;;1.95
49154;BMP280;49455;52.252;9.124;2023-04-03T22:29:24;100977.97;;;1.92
49154;BMP280;49455;52.252;9.124;2023-04-03T22:34:25;100980.00;;;1.86
49154;BMP280;49455;52.252;9.124;2023-04-03T22:39:26;100972.59;;;1.89
49154;BMP280;49455;52.252;9.124;2023-04-03T22:44:26;100967.66;;;1.81
49154;BMP280;49455;52.252;9.124;2023-04-03T22:49:27;100969.88;;;1.77
49154;BMP280;49455;52.252;9.124;2023-04-03T22:54:27;100960.31;;;1.74
49154;BMP280;49455;52.252;9.124;2023-04-03T22:59:28;100965.69;;;1.67
49154;BMP280;49455;52.252;9.124;2023-04-03T23:04:28;100966.06;;;1.62
49154;BMP280;49455;52.252;9.124;2023-04-03T23:09:28;100960.34;;;1.64
49154;BMP280;49455;52.252;9.124;2023-04-03T23:14:29;100962.53;;;1.60
49154;BMP280;49455;52.252;9.124;2023-04-03T23:19:30;100972.09;;;1.52
49154;BMP280;49455;52.252;9.124;2023-04-03T23:24:31;100978.22;;;1.54
49154;BMP280;49455;52.252;9.124;2023-04-03T23:29:31;100975.53;;;1.53
49154;BMP280;49455;52.252;9.124;2023-04-03T23:34:32;100976.06;;;1.49
49154;BMP280;49455;52.252;9.124;2023-04-03T23:39:32;100971.06;;;1.50
49154;BMP280;49455;52.252;9.124;2023-04-03T23:44:35;100970.03;;;1.49
49154;BMP280;49455;52.252;9.124;2023-04-03T23:49:35;100978.47;;;1.48
49154;BMP280;49455;52.252;9.124;2023-04-03T23:54:38;100978.22;;;1.45
49154;BMP280;49455;52.252;9.124;2023-04-03T23:59:40;100974.00;;;1.45
